Flight Track Log - Related Links

Times and Time Zones

All times are in EDT time to prevent confusion due to time zone crossing. See the DAL6225 flight status page for this flight to view local times or setup timezone preferences in your user account.

Time Position Orientation Groundspeed Altitude Reporting Facility
EDT Latitude Longitude Course Direction KTS MPH feet Rate Location/Type
Wed 08:29:44 AM 43.1797 -89.2731 90° East 236 272 3,700  Level Chicago Center
Wed 08:30:46 AM 43.1717 -89.1772 97° East 252 290 6,600 2,661 Climbing Chicago Center
Wed 08:31:48 AM 43.1669 -89.0656 93° East 284 327 9,200 2,468 Climbing Chicago Center
Wed 08:32:50 AM 43.1608 -88.9483 94° East 301 346 11,700 2,049 Climbing Chicago Center
Wed 08:33:51 AM 43.1522 -88.8153 95° East 345 397 13,400 1,561 Climbing Chicago Center
Wed 08:34:53 AM 43.1408 -88.6478 95° East 382 440 14,900 1,306 Climbing Chicago Center
Wed 08:35:00 AM 43.1167 -88.4123 90° East  Level FlightAware Approximate
Wed 08:35:55 AM 43.1306 -88.5014 95° East 389 448 16,100  Level Chicago Center
Wed 08:36:57 AM 43.1214 -88.3511 95° East 396 456 17,000 823 Climbing Chicago Center
Wed 08:37:59 AM 43.1214 -88.1919 90° East 418 481 17,800 1,161 Climbing Chicago Center
Wed 08:39:01 AM 43.1292 -88.0317 86° East 423 487 19,400 1,645 Climbing Chicago Center
Wed 08:40:03 AM 43.1386 -87.8350 86° East 444 511 21,200 1,452 Climbing Chicago Center
Wed 08:41:05 AM 43.1469 -87.6608 86° East 459 528 22,400 1,152 Climbing Chicago Center
Wed 08:42:08 AM 43.1539 -87.4775 87° East 480 552 23,600 1,306 Climbing Chicago Center
Wed 08:43:09 AM 43.1633 -87.2944 86° East 494 568 25,100 1,415 Climbing Chicago Center
Wed 08:44:11 AM 43.2061 -87.1086 72° East 513 590 26,500 1,065 Climbing Chicago Center
Wed 08:45:13 AM 43.2450 -86.9169 74° East 521 600 27,300 774 Climbing Chicago Center
Wed 08:46:15 AM 43.2947 -86.6753 74° East 546 628 28,100 829 Climbing Chicago Center
Wed 08:47:16 AM 43.3328 -86.4686 76° East 555 639 29,000 927 Climbing Chicago Center
Wed 08:48:18 AM 43.3369 -86.2642 88° East 532 612 30,000 968 Climbing Chicago Center
Wed 08:49:20 AM 43.3314 -86.0581 92° East 533 613 31,000 968 Climbing Chicago Center
Wed 08:50:22 AM 43.3283 -85.8525 91° East 532 612 32,000 968 Climbing Chicago Center
Wed 08:51:24 AM 43.3269 -85.6483 90° East 530 610 33,000 1,024 Climbing Chicago Center
Wed 08:52:25 AM 43.3250 -85.4456 91° East 529 609 34,100 976 Climbing Chicago Center
Wed 08:53:27 AM 43.3222 -85.2467 91° East 522 601 35,000 406 Climbing Chicago Center
Wed 08:54:38 AM 43.3158 -85.0006 92° East 518 596 35,000  Level Cleveland Center
Wed 08:55:38 AM 43.3128 -84.8033 91° East 518 596 35,000  Level Cleveland Center
Wed 08:56:38 AM 43.3072 -84.6033 92° East 518 596 35,000  Level Cleveland Center
Wed 08:57:38 AM 43.3033 -84.4089 92° East 518 596 35,000  Level Cleveland Center
Wed 08:58:38 AM 43.2992 -84.2175 92° East 518 596 35,000  Level Cleveland Center
Wed 08:59:38 AM 43.2947 -84.0206 92° East 513 590 35,000  Level Cleveland Center
Wed 09:00:38 AM 43.2897 -83.8347 92° East 506 582 35,000  Level Cleveland Center
Wed 09:01:38 AM 43.2844 -83.6433 92° East 501 577 35,000  Level Cleveland Center
Wed 09:02:38 AM 43.2792 -83.4464 92° East 501 577 35,000  Level Cleveland Center
Wed 09:03:38 AM 43.2733 -83.2522 92° East 501 577 35,000  Level Cleveland Center
Wed 09:04:38 AM 43.2672 -83.0608 92° East 501 577 35,000  Level Cleveland Center
Wed 09:05:38 AM 43.2586 -82.8694 93° East 501 577 35,000  Level Cleveland Center
Wed 09:06:38 AM 43.2519 -82.6753 93° East 501 577 35,000  Level Cleveland Center
Wed 09:07:38 AM 43.2408 -82.4783 94° East 501 577 35,000  Level Cleveland Center
Wed 09:08:38 AM 43.2269 -82.2869 96° East 501 577 35,000  Level Cleveland Center
Wed 09:09:38 AM 43.2150 -82.0931 95° East 501 577 35,000  Level Cleveland Center
Wed 09:10:27 AM 43.2000 -81.9000 96° East 510 587 35,000  Level Toronto Center
Wed 09:11:27 AM 43.1833 -81.7167 97° East 510 587 35,000  Level Toronto Center
Wed 09:12:27 AM 43.1667 -81.5000 96° East 510 587 35,000  Level Toronto Center
Wed 09:13:27 AM 43.1500 -81.3167 97° East 510 587 35,000  Level Toronto Center
Wed 09:14:27 AM 43.1333 -81.1333 97° East 510 587 35,000  Level Toronto Center
Wed 09:15:27 AM 43.1167 -80.9333 96° East 510 587 35,000  Level Toronto Center
Wed 09:16:27 AM 43.1167 -80.7500 90° East 510 587 35,000  Level Toronto Center
Wed 09:17:27 AM 43.1000 -80.5500 96° East 510 587 35,000  Level Toronto Center
Wed 09:18:27 AM 43.0833 -80.3667 97° East 510 587 35,000  Level Toronto Center
Wed 09:19:27 AM 43.0667 -80.1500 96° East 510 587 35,000  Level Toronto Center
Wed 09:20:27 AM 43.0500 -79.9833 98° East 510 587 35,000  Level Toronto Center
Wed 09:21:27 AM 43.0333 -79.7667 96° East 510 587 35,000  Level Toronto Center
Wed 09:22:27 AM 43.0167 -79.5833 97° East 510 587 35,000  Level Toronto Center
Wed 09:23:27 AM 42.9833 -79.3833 103° East 510 587 35,000  Level Toronto Center
Wed 09:24:27 AM 42.9667 -79.2000 97° East 520 598 35,000  Level Toronto Center
Wed 09:25:27 AM 42.9500 -79.0000 96° East 520 598 35,000  Level Toronto Center
Wed 09:26:27 AM 42.9333 -78.8167 97° East 520 598 35,000  Level Toronto Center
Wed 09:27:02 AM 42.9369 -78.7144 87° East 516 594 35,000  Level Cleveland Center
Wed 09:28:02 AM 42.9169 -78.5222 98° East 511 588 35,000  Level Cleveland Center
Wed 09:29:02 AM 42.8969 -78.3331 98° East 511 588 35,000  Level Cleveland Center
Wed 09:30:02 AM 42.8783 -78.1439 98° East 505 581 35,000  Level Cleveland Center
Wed 09:31:02 AM 42.8597 -77.9575 98° East 500 575 35,000  Level Cleveland Center
Wed 09:32:02 AM 42.8414 -77.7942 99° East 500 575 35,000  Level Cleveland Center
Wed 09:33:02 AM 42.8200 -77.6108 99° East 495 570 35,000  Level Cleveland Center
Wed 09:34:40 AM 42.7775 -77.3150 101° East 497 572 35,000  Level Boston Center
Wed 09:35:40 AM 42.7514 -77.1375 101° East 486 559 35,000  Level Boston Center
Wed 09:36:40 AM 42.7256 -76.9572 101° East 481 554 35,000  Level Boston Center
Wed 09:37:40 AM 42.7011 -76.7803 101° East 481 554 35,000  Level Boston Center
Wed 09:38:40 AM 42.6744 -76.6003 101° East 476 548 35,000  Level Boston Center
Wed 09:39:40 AM 42.6472 -76.4264 102° East 476 548 35,000  Level Boston Center
Wed 09:40:40 AM 42.6186 -76.2325 101° East 476 548 35,000 -500 Level Boston Center
Wed 09:41:40 AM 42.5911 -76.0475 101° East 476 548 34,000 -1,250 Descending Boston Center
Wed 09:42:40 AM 42.5633 -75.8653 102° East 481 554 32,500 -1,500 Descending Boston Center
Wed 09:43:40 AM 42.5356 -75.6833 102° East 486 559 31,000 -1,500 Descending Boston Center
Wed 09:44:40 AM 42.5089 -75.5131 102° East 481 554 29,500 -1,500 Descending Boston Center
Wed 09:45:40 AM 42.4822 -75.3428 102° East 465 535 28,000 -1,500 Descending Boston Center
Wed 09:46:40 AM 42.4442 -75.1861 108° East 454 522 26,500 -1,500 Descending Boston Center
Wed 09:47:40 AM 42.3917 -75.0322 115° Southeast 447 514 25,000 -1,350 Descending Boston Center
Wed 09:48:40 AM 42.3364 -74.8864 117° Southeast 435 501 23,800 -1,100 Descending Boston Center
Wed 09:49:40 AM 42.2850 -74.7525 117° Southeast 422 486 22,800 -1,000 Descending Boston Center
Wed 09:50:40 AM 42.2356 -74.6189 117° Southeast 401 461 21,800 -1,300 Descending Boston Center
Wed 09:51:40 AM 42.1839 -74.4883 118° Southeast 394 453 20,200 -1,550 Descending Boston Center
Wed 09:52:40 AM 42.1364 -74.3522 115° Southeast 394 453 18,700 -1,000 Descending Boston Center
Wed 09:53:52 AM 42.0881 -74.2361 119° Southeast 400 460 18,000 -773 Descending Boston Center
Wed 09:54:52 AM 42.0050 -74.0914 128° Southeast 373 429 17,000 -500 Descending Boston Center
Wed 09:55:52 AM 41.9181 -74.0500 160° South 359 413 17,000  Level Boston Center
Wed 09:56:52 AM 41.8122 -74.0028 162° South 364 419 17,000 -300 Level Boston Center
Wed 09:57:52 AM 41.7150 -73.9586 161° South 369 425 16,400 -1,600 Descending Boston Center
Wed 09:58:52 AM 41.6197 -73.9175 162° South 364 419 13,800 -2,400 Descending Boston Center
Wed 09:59:52 AM 41.5283 -73.8792 163° South 353 406 11,600 -1,895 Descending Boston Center
Wed 10:01:05 AM 41.4333 -73.8333 160° South 308 354 9,600 -1,181 Descending New York TRACON
Wed 10:01:59 AM 41.3500 -73.8000 163° South 288 331 9,100 -789 Descending New York TRACON
Wed 10:02:59 AM 41.2833 -73.7500 151° Southeast 301 346 8,100 -1,050 Descending New York TRACON
Wed 10:03:59 AM 41.2167 -73.6833 143° Southeast 299 344 7,000 -900 Descending New York TRACON
Wed 10:04:59 AM 41.1667 -73.6333 143° Southeast 263 303 6,300 -737 Descending New York TRACON
Wed 10:05:53 AM 41.1167 -73.6000 153° Southeast 211 243 5,600 -1,000 Descending New York TRACON
Wed 10:06:53 AM 41.0667 -73.6333 207° Southwest 189 217 4,400 -800 Descending New York TRACON
Wed 10:07:53 AM 41.0167 -73.6667 207° Southwest 173 199 4,000 -250 Descending New York TRACON
Wed 10:08:53 AM 40.9833 -73.7000 217° Southwest 173 199 3,900 -500 Descending New York TRACON
Wed 10:09:53 AM 40.9500 -73.7333 217° Southwest 159 183 3,000 -700 Descending New York TRACON
Wed 10:10:53 AM 40.9167 -73.7667 217° Southwest 161 185 2,500 -474 Descending New York TRACON
Wed 10:11:47 AM 40.8667 -73.8000 207° Southwest 169 194 2,100 -632 Descending New York TRACON
Wed 10:12:47 AM 40.8333 -73.8333 217° Southwest 150 173 1,300 -800 Descending New York TRACON

Login

Don't have an account? Register now (free) for customized features, flight alerts, and more!